sensor_id;sensor_type;location;lat;lon;timestamp;temperature;humidity
37488;DHT22;23342;52.620;13.300;2022-12-16T00:00:07;-5.10;99.90
37488;DHT22;23342;52.620;13.300;2022-12-16T00:02:34;-5.10;99.90
37488;DHT22;23342;52.620;13.300;2022-12-16T00:05:03;-5.10;99.90
37488;DHT22;23342;52.620;13.300;2022-12-16T00:07:29;-5.10;99.90
37488;DHT22;23342;52.620;13.300;2022-12-16T00:09:54;-5.20;99.90
37488;DHT22;23342;52.620;13.300;2022-12-16T00:12:20;-5.10;99.90
37488;DHT22;23342;52.620;13.300;2022-12-16T00:14:45;-5.20;99.90
37488;DHT22;23342;52.620;13.300;2022-12-16T00:17:11;-5.20;99.90
37488;DHT22;23342;52.620;13.300;2022-12-16T00:19:36;-5.20;99.90
37488;DHT22;23342;52.620;13.300;2022-12-16T00:22:02;-5.20;99.90
37488;DHT22;23342;52.620;13.300;2022-12-16T00:24:27;-5.10;99.90
37488;DHT22;23342;52.620;13.300;2022-12-16T00:26:56;-5.20;99.90
37488;DHT22;23342;52.620;13.300;2022-12-16T00:29:22;-5.20;99.90
37488;DHT22;23342;52.620;13.300;2022-12-16T00:31:47;-5.20;99.90
37488;DHT22;23342;52.620;13.300;2022-12-16T00:34:16;-5.20;99.90
37488;DHT22;23342;52.620;13.300;2022-12-16T00:36:42;-5.20;99.90
37488;DHT22;23342;52.620;13.300;2022-12-16T00:39:09;-5.20;99.90
37488;DHT22;23342;52.620;13.300;2022-12-16T00:41:35;-5.30;99.90
37488;DHT22;23342;52.620;13.300;2022-12-16T00:44:01;-5.40;99.90
37488;DHT22;23342;52.620;13.300;2022-12-16T00:46:27;-5.50;99.90
37488;DHT22;23342;52.620;13.300;2022-12-16T00:48:53;-5.50;99.90
37488;DHT22;23342;52.620;13.300;2022-12-16T00:51:18;-5.50;99.90
37488;DHT22;23342;52.620;13.300;2022-12-16T00:53:44;-5.50;99.90
37488;DHT22;23342;52.620;13.300;2022-12-16T00:56:11;-5.50;99.90
37488;DHT22;23342;52.620;13.300;2022-12-16T00:58:39;-5.60;99.90
37488;DHT22;23342;52.620;13.300;2022-12-16T01:01:06;-5.50;99.90
37488;DHT22;23342;52.620;13.300;2022-12-16T01:03:32;-5.50;99.90
37488;DHT22;23342;52.620;13.300;2022-12-16T01:05:58;-5.50;99.90
37488;DHT22;23342;52.620;13.300;2022-12-16T01:08:24;-5.60;99.90
37488;DHT22;23342;52.620;13.300;2022-12-16T01:10:52;-5.50;99.90
37488;DHT22;23342;52.620;13.300;2022-12-16T01:13:18;-5.50;99.90
37488;DHT22;23342;52.620;13.300;2022-12-16T01:15:43;-5.50;99.90
37488;DHT22;23342;52.620;13.300;2022-12-16T01:18:09;-5.60;99.90
37488;DHT22;23342;52.620;13.300;2022-12-16T01:20:35;-5.50;99.90
37488;DHT22;23342;52.620;13.300;2022-12-16T01:23:00;-5.60;99.90
37488;DHT22;23342;52.620;13.300;2022-12-16T01:25:26;-5.60;99.90
37488;DHT22;23342;52.620;13.300;2022-12-16T01:27:52;-5.60;99.90
37488;DHT22;23342;52.620;13.300;2022-12-16T01:30:20;-5.60;99.90
37488;DHT22;23342;52.620;13.300;2022-12-16T01:32:46;-5.70;99.90
37488;DHT22;23342;52.620;13.300;2022-12-16T01:35:12;-5.90;99.90
37488;DHT22;23342;52.620;13.300;2022-12-16T01:37:38;-5.90;99.90
37488;DHT22;23342;52.620;13.300;2022-12-16T01:40:04;-5.80;99.90
37488;DHT22;23342;52.620;13.300;2022-12-16T01:42:30;-5.70;99.90
37488;DHT22;23342;52.620;13.300;2022-12-16T01:45:32;-5.70;99.90
37488;DHT22;23342;52.620;13.300;2022-12-16T01:48:20;-5.70;99.90
37488;DHT22;23342;52.620;13.300;2022-12-16T01:50:48;-5.80;99.90
37488;DHT22;23342;52.620;13.300;2022-12-16T01:53:14;-5.70;99.90
37488;DHT22;23342;52.620;13.300;2022-12-16T01:55:44;-5.70;99.90
37488;DHT22;23342;52.620;13.300;2022-12-16T01:58:15;-5.70;99.90
37488;DHT22;23342;52.620;13.300;2022-12-16T02:00:43;-5.60;99.90
37488;DHT22;23342;52.620;13.300;2022-12-16T02:03:09;-5.60;99.90
37488;DHT22;23342;52.620;13.300;2022-12-16T02:05:39;-5.50;99.90
37488;DHT22;23342;52.620;13.300;2022-12-16T02:08:16;-5.60;99.90
37488;DHT22;23342;52.620;13.300;2022-12-16T02:11:08;-5.60;99.90
37488;DHT22;23342;52.620;13.300;2022-12-16T02:13:56;-5.50;99.90
37488;DHT22;23342;52.620;13.300;2022-12-16T02:16:59;-5.70;99.90
37488;DHT22;23342;52.620;13.300;2022-12-16T02:19:53;-5.80;99.90
37488;DHT22;23342;52.620;13.300;2022-12-16T02:22:54;-5.80;99.90
37488;DHT22;23342;52.620;13.300;2022-12-16T02:25:54;-5.70;99.90
37488;DHT22;23342;52.620;13.300;2022-12-16T02:28:49;-5.70;99.90
37488;DHT22;23342;52.620;13.300;2022-12-16T02:31:41;-5.70;99.90
37488;DHT22;23342;52.620;13.300;2022-12-16T02:35:08;-5.70;99.90
37488;DHT22;23342;52.620;13.300;2022-12-16T02:37:57;-5.60;99.90
37488;DHT22;23342;52.620;13.300;2022-12-16T02:40:56;-5.60;99.90
37488;DHT22;23342;52.620;13.300;2022-12-16T02:46:54;-5.70;99.90
37488;DHT22;23342;52.620;13.300;2022-12-16T02:49:44;-5.70;99.90
37488;DHT22;23342;52.620;13.300;2022-12-16T02:52:11;-5.60;99.90
37488;DHT22;23342;52.620;13.300;2022-12-16T02:54:38;-5.60;99.90
37488;DHT22;23342;52.620;13.300;2022-12-16T03:03:05;-5.70;99.90
37488;DHT22;23342;52.620;13.300;2022-12-16T03:05:38;-5.70;99.90
37488;DHT22;23342;52.620;13.300;2022-12-16T03:08:09;-5.70;99.90
37488;DHT22;23342;52.620;13.300;2022-12-16T03:10:42;-5.60;99.90
37488;DHT22;23342;52.620;13.300;2022-12-16T03:13:10;-5.70;99.90
37488;DHT22;23342;52.620;13.300;2022-12-16T03:15:37;-5.80;99.90
37488;DHT22;23342;52.620;13.300;2022-12-16T03:18:07;-5.80;99.90
37488;DHT22;23342;52.620;13.300;2022-12-16T03:21:02;-5.90;99.90
37488;DHT22;23342;52.620;13.300;2022-12-16T03:23:45;-5.90;99.90
37488;DHT22;23342;52.620;13.300;2022-12-16T03:26:18;-5.80;99.90
37488;DHT22;23342;52.620;13.300;2022-12-16T03:28:59;-5.90;99.90
37488;DHT22;23342;52.620;13.300;2022-12-16T03:31:35;-6.00;99.90
37488;DHT22;23342;52.620;13.300;2022-12-16T03:39:09;-6.00;99.90
37488;DHT22;23342;52.620;13.300;2022-12-16T03:41:37;-5.90;99.90
37488;DHT22;23342;52.620;13.300;2022-12-16T03:44:03;-5.90;99.90
37488;DHT22;23342;52.620;13.300;2022-12-16T03:46:28;-6.00;99.90
37488;DHT22;23342;52.620;13.300;2022-12-16T03:48:54;-6.00;99.90
37488;DHT22;23342;52.620;13.300;2022-12-16T03:51:19;-5.90;99.90
37488;DHT22;23342;52.620;13.300;2022-12-16T03:53:45;-5.90;99.90
37488;DHT22;23342;52.620;13.300;2022-12-16T03:56:11;-6.00;99.90
37488;DHT22;23342;52.620;13.300;2022-12-16T03:58:38;-6.10;99.90
37488;DHT22;23342;52.620;13.300;2022-12-16T04:01:08;-6.20;99.90
37488;DHT22;23342;52.620;13.300;2022-12-16T04:03:34;-6.10;99.90
37488;DHT22;23342;52.620;13.300;2022-12-16T04:06:00;-6.10;99.90
37488;DHT22;23342;52.620;13.300;2022-12-16T04:08:25;-6.10;99.90
37488;DHT22;23342;52.620;13.300;2022-12-16T04:10:51;-6.20;99.90
37488;DHT22;23342;52.620;13.300;2022-12-16T04:13:36;-6.20;99.90
37488;DHT22;23342;52.620;13.300;2022-12-16T04:16:20;-6.20;99.90
37488;DHT22;23342;52.620;13.300;2022-12-16T04:19:04;-6.20;99.90
37488;DHT22;23342;52.620;13.300;2022-12-16T04:21:49;-6.30;99.90
37488;DHT22;23342;52.620;13.300;2022-12-16T04:26:06;-6.30;99.90
37488;DHT22;23342;52.620;13.300;2022-12-16T04:28:31;-6.20;99.90
37488;DHT22;23342;52.620;13.300;2022-12-16T04:30:57;-6.10;99.90
37488;DHT22;23342;52.620;13.300;2022-12-16T04:33:23;-6.10;99.90
37488;DHT22;23342;52.620;13.300;2022-12-16T04:36:08;-6.10;99.90
37488;DHT22;23342;52.620;13.300;2022-12-16T04:38:52;-6.00;99.90
37488;DHT22;23342;52.620;13.300;2022-12-16T04:41:36;-6.00;99.90
37488;DHT22;23342;52.620;13.300;2022-12-16T04:44:19;-5.90;99.90
37488;DHT22;23342;52.620;13.300;2022-12-16T04:47:04;-6.00;99.90
37488;DHT22;23342;52.620;13.300;2022-12-16T04:49:48;-6.20;99.90
37488;DHT22;23342;52.620;13.300;2022-12-16T04:52:32;-6.20;99.90
37488;DHT22;23342;52.620;13.300;2022-12-16T04:55:16;-6.10;99.90
37488;DHT22;23342;52.620;13.300;2022-12-16T04:58:01;-6.10;99.90
37488;DHT22;23342;52.620;13.300;2022-12-16T05:00:46;-6.20;99.90
37488;DHT22;23342;52.620;13.300;2022-12-16T05:03:31;-6.10;99.90
37488;DHT22;23342;52.620;13.300;2022-12-16T05:06:15;-6.10;99.90
37488;DHT22;23342;52.620;13.300;2022-12-16T05:09:00;-6.10;99.90
37488;DHT22;23342;52.620;13.300;2022-12-16T05:11:45;-6.10;99.90
37488;DHT22;23342;52.620;13.300;2022-12-16T05:14:29;-6.10;99.90
37488;DHT22;23342;52.620;13.300;2022-12-16T05:17:13;-6.20;99.90
37488;DHT22;23342;52.620;13.300;2022-12-16T05:19:58;-6.20;99.90
37488;DHT22;23342;52.620;13.300;2022-12-16T05:22:43;-6.30;99.90
37488;DHT22;23342;52.620;13.300;2022-12-16T05:25:27;-6.30;99.90
37488;DHT22;23342;52.620;13.300;2022-12-16T05:28:11;-6.40;99.90
37488;DHT22;23342;52.620;13.300;2022-12-16T05:30:55;-6.40;99.90
37488;DHT22;23342;52.620;13.300;2022-12-16T05:33:40;-6.40;99.90
37488;DHT22;23342;52.620;13.300;2022-12-16T05:36:24;-6.40;99.90
37488;DHT22;23342;52.620;13.300;2022-12-16T05:39:08;-6.40;99.90
37488;DHT22;23342;52.620;13.300;2022-12-16T05:41:54;-6.30;99.90
37488;DHT22;23342;52.620;13.300;2022-12-16T05:44:38;-6.50;99.90
37488;DHT22;23342;52.620;13.300;2022-12-16T05:47:22;-6.50;99.90
37488;DHT22;23342;52.620;13.300;2022-12-16T05:50:07;-6.50;99.90
37488;DHT22;23342;52.620;13.300;2022-12-16T05:52:53;-6.40;99.90
37488;DHT22;23342;52.620;13.300;2022-12-16T05:55:37;-6.40;99.90
37488;DHT22;23342;52.620;13.300;2022-12-16T05:58:21;-6.40;99.90
37488;DHT22;23342;52.620;13.300;2022-12-16T06:01:06;-6.40;99.90
37488;DHT22;23342;52.620;13.300;2022-12-16T06:03:50;-6.40;99.90
37488;DHT22;23342;52.620;13.300;2022-12-16T06:06:34;-6.40;99.90
37488;DHT22;23342;52.620;13.300;2022-12-16T06:09:18;-6.30;99.90
37488;DHT22;23342;52.620;13.300;2022-12-16T06:12:03;-6.30;99.90
37488;DHT22;23342;52.620;13.300;2022-12-16T06:14:47;-6.30;99.90
37488;DHT22;23342;52.620;13.300;2022-12-16T06:17:31;-6.30;99.90
37488;DHT22;23342;52.620;13.300;2022-12-16T06:20:15;-6.20;99.90
37488;DHT22;23342;52.620;13.300;2022-12-16T06:22:59;-6.30;99.90
37488;DHT22;23342;52.620;13.300;2022-12-16T06:25:44;-6.20;99.90
37488;DHT22;23342;52.620;13.300;2022-12-16T06:28:28;-6.30;99.90
37488;DHT22;23342;52.620;13.300;2022-12-16T06:31:12;-6.20;99.90
37488;DHT22;23342;52.620;13.300;2022-12-16T06:33:56;-6.30;99.90
37488;DHT22;23342;52.620;13.300;2022-12-16T06:36:40;-6.40;99.90
37488;DHT22;23342;52.620;13.300;2022-12-16T06:39:24;-6.50;99.90
37488;DHT22;23342;52.620;13.300;2022-12-16T06:42:08;-6.50;99.90
37488;DHT22;23342;52.620;13.300;2022-12-16T06:44:52;-6.40;99.90
37488;DHT22;23342;52.620;13.300;2022-12-16T06:47:42;-6.40;99.90
37488;DHT22;23342;52.620;13.300;2022-12-16T06:50:26;-6.30;99.90
37488;DHT22;23342;52.620;13.300;2022-12-16T06:53:10;-6.30;99.90
37488;DHT22;23342;52.620;13.300;2022-12-16T06:55:54;-6.30;99.90
37488;DHT22;23342;52.620;13.300;2022-12-16T06:58:38;-6.30;99.90
37488;DHT22;23342;52.620;13.300;2022-12-16T07:01:22;-6.30;99.90
37488;DHT22;23342;52.620;13.300;2022-12-16T07:04:06;-6.30;99.90
37488;DHT22;23342;52.620;13.300;2022-12-16T07:06:51;-6.30;99.90
37488;DHT22;23342;52.620;13.300;2022-12-16T07:09:35;-6.30;99.90
37488;DHT22;23342;52.620;13.300;2022-12-16T07:12:19;-6.40;99.90
37488;DHT22;23342;52.620;13.300;2022-12-16T07:15:04;-6.50;99.90
37488;DHT22;23342;52.620;13.300;2022-12-16T07:17:48;-6.50;99.90
37488;DHT22;23342;52.620;13.300;2022-12-16T07:20:32;-6.40;99.90
37488;DHT22;23342;52.620;13.300;2022-12-16T07:23:16;-6.40;99.90
37488;DHT22;23342;52.620;13.300;2022-12-16T07:26:00;-6.40;99.90
37488;DHT22;23342;52.620;13.300;2022-12-16T16:28:36;-1.70;99.90
37488;DHT22;23342;52.620;13.300;2022-12-16T16:31:21;-1.70;99.90
37488;DHT22;23342;52.620;13.300;2022-12-16T16:34:05;-1.60;99.90
37488;DHT22;23342;52.620;13.300;2022-12-16T16:39:07;-1.60;99.90
37488;DHT22;23342;52.620;13.300;2022-12-16T16:41:53;-1.50;99.90
37488;DHT22;23342;52.620;13.300;2022-12-16T16:44:37;-1.50;99.90
37488;DHT22;23342;52.620;13.300;2022-12-16T16:47:21;-1.60;99.90
37488;DHT22;23342;52.620;13.300;2022-12-16T16:50:05;-1.60;99.90
37488;DHT22;23342;52.620;13.300;2022-12-16T16:52:49;-1.60;99.90
37488;DHT22;23342;52.620;13.300;2022-12-16T16:55:34;-1.60;99.90
37488;DHT22;23342;52.620;13.300;2022-12-16T16:58:29;-1.60;99.90
37488;DHT22;23342;52.620;13.300;2022-12-16T17:01:17;-1.60;99.90
37488;DHT22;23342;52.620;13.300;2022-12-16T17:04:01;-1.60;99.90
37488;DHT22;23342;52.620;13.300;2022-12-16T17:06:46;-1.50;99.90
37488;DHT22;23342;52.620;13.300;2022-12-16T17:09:30;-1.50;99.90
37488;DHT22;23342;52.620;13.300;2022-12-16T17:12:47;-1.50;99.90
37488;DHT22;23342;52.620;13.300;2022-12-16T17:15:35;-1.50;99.90
37488;DHT22;23342;52.620;13.300;2022-12-16T17:18:20;-1.50;99.90
37488;DHT22;23342;52.620;13.300;2022-12-16T17:21:04;-1.50;99.90
37488;DHT22;23342;52.620;13.300;2022-12-16T17:23:48;-1.40;99.90
37488;DHT22;23342;52.620;13.300;2022-12-16T17:26:33;-1.50;99.90
37488;DHT22;23342;52.620;13.300;2022-12-16T17:35:49;-1.50;99.90
37488;DHT22;23342;52.620;13.300;2022-12-16T17:38:38;-1.40;99.90
37488;DHT22;23342;52.620;13.300;2022-12-16T17:41:23;-1.40;99.90
37488;DHT22;23342;52.620;13.300;2022-12-16T17:44:07;-1.40;99.90
37488;DHT22;23342;52.620;13.300;2022-12-16T17:46:51;-1.40;99.90
37488;DHT22;23342;52.620;13.300;2022-12-16T17:49:35;-1.30;99.90
37488;DHT22;23342;52.620;13.300;2022-12-16T17:52:19;-1.40;99.90
37488;DHT22;23342;52.620;13.300;2022-12-16T17:56:18;-1.40;99.90
37488;DHT22;23342;52.620;13.300;2022-12-16T17:59:02;-1.40;99.90
37488;DHT22;23342;52.620;13.300;2022-12-16T18:01:46;-1.40;99.90
37488;DHT22;23342;52.620;13.300;2022-12-16T18:04:31;-1.40;99.90
37488;DHT22;23342;52.620;13.300;2022-12-16T18:07:15;-1.40;99.90
37488;DHT22;23342;52.620;13.300;2022-12-16T18:09:59;-1.40;99.90
37488;DHT22;23342;52.620;13.300;2022-12-16T18:12:43;-1.40;99.90
37488;DHT22;23342;52.620;13.300;2022-12-16T18:15:27;-1.40;99.90
37488;DHT22;23342;52.620;13.300;2022-12-16T18:18:11;-1.30;99.90
37488;DHT22;23342;52.620;13.300;2022-12-16T18:20:56;-1.30;99.90
37488;DHT22;23342;52.620;13.300;2022-12-16T18:23:40;-1.30;99.90
37488;DHT22;23342;52.620;13.300;2022-12-16T18:26:24;-1.30;99.90
37488;DHT22;23342;52.620;13.300;2022-12-16T18:29:08;-1.40;99.90
37488;DHT22;23342;52.620;13.300;2022-12-16T18:31:52;-1.40;99.90
37488;DHT22;23342;52.620;13.300;2022-12-16T18:34:36;-1.40;99.90
37488;DHT22;23342;52.620;13.300;2022-12-16T18:37:20;-1.40;99.90
37488;DHT22;23342;52.620;13.300;2022-12-16T18:40:06;-1.30;99.90
37488;DHT22;23342;52.620;13.300;2022-12-16T18:42:50;-1.30;99.90
37488;DHT22;23342;52.620;13.300;2022-12-16T18:45:34;-1.30;99.90
37488;DHT22;23342;52.620;13.300;2022-12-16T18:48:18;-1.30;99.90
37488;DHT22;23342;52.620;13.300;2022-12-16T18:51:03;-1.30;99.90
37488;DHT22;23342;52.620;13.300;2022-12-16T18:53:49;-1.30;99.90
37488;DHT22;23342;52.620;13.300;2022-12-16T18:56:33;-1.20;99.90
37488;DHT22;23342;52.620;13.300;2022-12-16T18:59:17;-1.20;99.90
37488;DHT22;23342;52.620;13.300;2022-12-16T19:02:01;-1.20;99.90
37488;DHT22;23342;52.620;13.300;2022-12-16T19:04:45;-1.20;99.90
37488;DHT22;23342;52.620;13.300;2022-12-16T19:07:29;-1.20;99.90
37488;DHT22;23342;52.620;13.300;2022-12-16T19:10:14;-1.20;99.90
37488;DHT22;23342;52.620;13.300;2022-12-16T19:12:57;-1.20;99.90
37488;DHT22;23342;52.620;13.300;2022-12-16T19:15:42;-1.20;99.90
37488;DHT22;23342;52.620;13.300;2022-12-16T19:18:35;-1.20;99.90
37488;DHT22;23342;52.620;13.300;2022-12-16T19:21:19;-1.20;99.90
37488;DHT22;23342;52.620;13.300;2022-12-16T19:24:03;-1.30;99.90
37488;DHT22;23342;52.620;13.300;2022-12-16T19:26:48;-1.20;99.90
37488;DHT22;23342;52.620;13.300;2022-12-16T19:29:32;-1.20;99.90
37488;DHT22;23342;52.620;13.300;2022-12-16T19:32:16;-1.20;99.90
37488;DHT22;23342;52.620;13.300;2022-12-16T19:35:00;-1.20;99.90
37488;DHT22;23342;52.620;13.300;2022-12-16T19:37:44;-1.20;99.90
37488;DHT22;23342;52.620;13.300;2022-12-16T19:40:28;-1.20;99.90
37488;DHT22;23342;52.620;13.300;2022-12-16T19:43:12;-1.10;99.90
37488;DHT22;23342;52.620;13.300;2022-12-16T19:45:56;-1.10;99.90
37488;DHT22;23342;52.620;13.300;2022-12-16T19:48:40;-1.10;99.90
37488;DHT22;23342;52.620;13.300;2022-12-16T19:51:24;-1.00;99.90
37488;DHT22;23342;52.620;13.300;2022-12-16T19:55:12;-1.10;99.90
37488;DHT22;23342;52.620;13.300;2022-12-16T19:57:56;-1.00;99.90
37488;DHT22;23342;52.620;13.300;2022-12-16T20:00:40;-1.00;99.90
37488;DHT22;23342;52.620;13.300;2022-12-16T20:03:24;-0.90;99.90
